Time;durP1;ratioP1;P1;durP2;ratioP2;P2;SDS_P1;SDS_P2;PMS_P1;PMS_P2;Temp;Humidity;BMP_temperature;BMP_pressure;BME280_temperature;BME280_humidity;BME280_pressure;Samples;Min_cycle;Max_cycle;Signal;HPM_P1;HPM_P2
2023/09/07 00:01:31;;;;;;;2.55;2.10;;;;;;;;;;5125542;27;20037;-79
2023/09/07 00:03:57;;;;;;;4.13;2.05;;;;;;;;;;5124579;27;20106;-79
2023/09/07 00:06:22;;;;;;;3.72;1.90;;;;;;;;;;5124785;27;20027;-79
2023/09/07 00:08:47;;;;;;;3.45;1.95;;;;;;;;;;5123037;27;20757;-78
2023/09/07 00:11:13;;;;;;;3.05;2.13;;;;;;;;;;5118652;27;20023;-79
2023/09/07 00:13:38;;;;;;;2.63;1.65;;;;;;;;;;5130862;27;20022;-78
2023/09/07 00:16:05;;;;;;;4.03;1.70;;;;;;;;;;5147219;27;20038;-81
2023/09/07 00:18:31;;;;;;;2.58;1.92;;;;;;;;;;5127663;27;20029;-78
2023/09/07 00:20:57;;;;;;;4.60;1.88;;;;;;;;;;5128313;27;20023;-78
2023/09/07 00:23:22;;;;;;;2.67;2.03;;;;;;;;;;5134668;27;20034;-78
2023/09/07 00:25:48;;;;;;;2.95;2.05;;;;;;;;;;5125615;27;20106;-77
2023/09/07 00:28:13;;;;;;;2.10;1.65;;;;;;;;;;5130829;27;20047;-77
2023/09/07 00:30:39;;;;;;;3.70;2.00;;;;;;;;;;5133104;27;20023;-77
2023/09/07 00:33:05;;;;;;;1.80;1.67;;;;;;;;;;5143571;27;20537;-77
2023/09/07 00:35:30;;;;;;;2.58;2.20;;;;;;;;;;5132432;27;20016;-77
2023/09/07 00:37:55;;;;;;;2.17;1.98;;;;;;;;;;5147385;27;20015;-77
2023/09/07 00:40:22;;;;;;;3.88;2.03;;;;;;;;;;5126605;27;20092;-78
2023/09/07 00:42:47;;;;;;;3.08;2.20;;;;;;;;;;5134397;27;20019;-77
2023/09/07 00:45:13;;;;;;;2.90;1.70;;;;;;;;;;5129582;27;20378;-77
2023/09/07 00:47:38;;;;;;;3.58;2.20;;;;;;;;;;5139005;27;20091;-78
2023/09/07 00:50:05;;;;;;;2.85;2.20;;;;;;;;;;5126032;27;20042;-77
2023/09/07 00:52:32;;;;;;;2.72;2.10;;;;;;;;;;5142227;27;20042;-77
2023/09/07 00:54:57;;;;;;;2.70;1.90;;;;;;;;;;5149137;28;20027;-78
2023/09/07 00:57:24;;;;;;;5.30;2.30;;;;;;;;;;5137325;27;20038;-80
2023/09/07 00:59:49;;;;;;;3.03;2.22;;;;;;;;;;5134186;27;20037;-78
2023/09/07 01:02:15;;;;;;;3.70;2.10;;;;;;;;;;5127400;27;20094;-78
2023/09/07 01:04:42;;;;;;;3.03;2.30;;;;;;;;;;5141596;27;20664;-77
2023/09/07 01:07:35;;;;;;;2.53;2.00;;;;;;;;;;5136493;27;20031;-77
2023/09/07 01:10:02;;;;;;;3.13;2.00;;;;;;;;;;5135860;27;20058;-77
2023/09/07 01:12:28;;;;;;;1.98;1.83;;;;;;;;;;5129147;27;20476;-79
2023/09/07 01:14:53;;;;;;;3.63;2.30;;;;;;;;;;5141662;27;20027;-78
2023/09/07 01:17:21;;;;;;;2.28;1.90;;;;;;;;;;5139626;27;20056;-78
2023/09/07 01:19:49;;;;;;;2.80;2.10;;;;;;;;;;5128822;28;20031;-79
2023/09/07 01:22:17;;;;;;;3.58;2.42;;;;;;;;;;5130351;27;20050;-79
2023/09/07 01:24:45;;;;;;;2.03;1.83;;;;;;;;;;5120155;27;20027;-79
2023/09/07 01:27:13;;;;;;;2.00;1.80;;;;;;;;;;5143933;27;20027;-79
2023/09/07 01:29:38;;;;;;;4.22;2.28;;;;;;;;;;5127975;27;20027;-79
2023/09/07 01:32:04;;;;;;;4.35;1.88;;;;;;;;;;5126585;27;20037;-79
2023/09/07 01:34:29;;;;;;;2.67;1.92;;;;;;;;;;5135696;27;20016;-79
2023/09/07 01:36:55;;;;;;;2.13;1.92;;;;;;;;;;5138815;27;20027;-79
2023/09/07 01:39:20;;;;;;;4.38;2.17;;;;;;;;;;5128026;27;20386;-79
2023/09/07 01:41:45;;;;;;;6.05;2.50;;;;;;;;;;5127256;27;20026;-79
2023/09/07 01:44:11;;;;;;;2.05;1.73;;;;;;;;;;5145938;27;20030;-79
2023/09/07 01:46:36;;;;;;;3.90;2.20;;;;;;;;;;5138946;27;20137;-79
2023/09/07 01:49:02;;;;;;;2.72;1.85;;;;;;;;;;5128516;27;20606;-79
2023/09/07 01:51:27;;;;;;;3.47;2.20;;;;;;;;;;5135213;27;20096;-79
2023/09/07 01:53:53;;;;;;;3.58;2.30;;;;;;;;;;5138276;27;20030;-79
2023/09/07 01:56:19;;;;;;;3.80;2.55;;;;;;;;;;5138870;27;20094;-79
2023/09/07 01:58:44;;;;;;;2.15;1.98;;;;;;;;;;5153093;27;20026;-78
2023/09/07 02:01:24;;;;;;;2.83;2.05;;;;;;;;;;5127617;27;20027;-79
2023/09/07 02:03:49;;;;;;;2.72;2.35;;;;;;;;;;5137713;27;20069;-79
2023/09/07 02:06:14;;;;;;;3.72;2.28;;;;;;;;;;5142443;27;20501;-78
2023/09/07 02:08:40;;;;;;;2.80;2.30;;;;;;;;;;5146927;27;20027;-78
2023/09/07 02:11:05;;;;;;;5.03;2.13;;;;;;;;;;5135959;27;20019;-78
2023/09/07 02:13:31;;;;;;;2.25;1.90;;;;;;;;;;5132950;27;20499;-78
2023/09/07 02:15:56;;;;;;;2.40;1.83;;;;;;;;;;5143453;27;20027;-78
2023/09/07 02:18:21;;;;;;;3.15;2.20;;;;;;;;;;5128862;27;20409;-77
2023/09/07 02:20:47;;;;;;;3.58;2.15;;;;;;;;;;5129899;27;20106;-77
2023/09/07 02:23:12;;;;;;;2.80;1.88;;;;;;;;;;5130858;27;20077;-78
2023/09/07 02:25:37;;;;;;;3.22;2.20;;;;;;;;;;5140836;27;20425;-78
2023/09/07 02:28:03;;;;;;;2.40;1.98;;;;;;;;;;5126631;27;20038;-80
2023/09/07 02:30:28;;;;;;;4.43;2.45;;;;;;;;;;5127660;27;20022;-80
2023/09/07 02:32:54;;;;;;;3.38;2.38;;;;;;;;;;5140203;27;20061;-77
2023/09/07 02:35:19;;;;;;;2.45;1.90;;;;;;;;;;5135077;27;20026;-78
2023/09/07 02:37:44;;;;;;;3.45;2.13;;;;;;;;;;5136676;27;20031;-78
2023/09/07 02:40:10;;;;;;;2.33;2.03;;;;;;;;;;5130997;27;20039;-78
2023/09/07 02:42:36;;;;;;;2.70;2.30;;;;;;;;;;5127665;27;20030;-78
2023/09/07 02:45:01;;;;;;;2.88;2.20;;;;;;;;;;5117785;27;20020;-78
2023/09/07 02:47:27;;;;;;;4.88;2.58;;;;;;;;;;5138056;27;20598;-77
2023/09/07 02:49:52;;;;;;;3.35;2.42;;;;;;;;;;5138814;27;20029;-78
2023/09/07 02:52:17;;;;;;;4.05;2.55;;;;;;;;;;5132878;27;20055;-80
2023/09/07 02:54:43;;;;;;;4.00;2.40;;;;;;;;;;5119869;27;20119;-78
2023/09/07 02:57:08;;;;;;;3.50;2.45;;;;;;;;;;5121744;27;20107;-78
2023/09/07 02:59:33;;;;;;;3.38;2.35;;;;;;;;;;5111570;27;20034;-79
2023/09/07 03:01:59;;;;;;;3.15;2.28;;;;;;;;;;5108064;27;20023;-80
2023/09/07 03:04:24;;;;;;;2.63;2.40;;;;;;;;;;5144518;27;20495;-79
2023/09/07 03:06:49;;;;;;;3.00;2.58;;;;;;;;;;5134287;27;20046;-78
2023/09/07 03:09:15;;;;;;;2.58;2.33;;;;;;;;;;5140836;27;20046;-80
2023/09/07 03:11:40;;;;;;;1.98;1.77;;;;;;;;;;5149942;27;20030;-78
2023/09/07 03:14:06;;;;;;;4.57;2.67;;;;;;;;;;5149167;27;20015;-78
2023/09/07 03:16:31;;;;;;;5.38;1.85;;;;;;;;;;5124949;27;20445;-79
2023/09/07 03:18:56;;;;;;;3.55;2.22;;;;;;;;;;5121064;27;20030;-78
2023/09/07 03:21:25;;;;;;;3.88;2.40;;;;;;;;;;5136748;27;20056;-80
2023/09/07 03:23:52;;;;;;;4.80;2.25;;;;;;;;;;5143758;27;20027;-80
2023/09/07 03:26:17;;;;;;;4.15;2.45;;;;;;;;;;5143754;27;20023;-78
2023/09/07 03:28:42;;;;;;;4.28;2.67;;;;;;;;;;5142862;27;20408;-78
2023/09/07 03:31:08;;;;;;;4.68;2.47;;;;;;;;;;5143024;27;20020;-78
2023/09/07 03:33:33;;;;;;;4.07;2.28;;;;;;;;;;5139810;27;20058;-78
2023/09/07 03:35:58;;;;;;;2.92;2.58;;;;;;;;;;5135877;27;20067;-78
2023/09/07 03:38:24;;;;;;;3.65;2.58;;;;;;;;;;5143737;27;20483;-78
2023/09/07 03:40:50;;;;;;;3.65;2.20;;;;;;;;;;5116462;27;20046;-80
2023/09/07 03:43:15;;;;;;;3.55;2.85;;;;;;;;;;5144272;27;20019;-80
2023/09/07 03:45:40;;;;;;;5.43;2.42;;;;;;;;;;5145566;27;20447;-79
2023/09/07 03:48:06;;;;;;;3.30;2.67;;;;;;;;;;5150170;27;20035;-78
2023/09/07 03:50:31;;;;;;;2.72;2.30;;;;;;;;;;5145841;27;20079;-78
2023/09/07 03:52:57;;;;;;;5.40;2.58;;;;;;;;;;5137598;27;20030;-79
2023/09/07 03:55:22;;;;;;;4.75;2.80;;;;;;;;;;5138370;27;20565;-78
2023/09/07 03:57:47;;;;;;;4.63;2.35;;;;;;;;;;5137484;27;20590;-78
2023/09/07 04:00:14;;;;;;;4.32;2.67;;;;;;;;;;5134579;27;20035;-79
2023/09/07 04:02:39;;;;;;;9.02;2.80;;;;;;;;;;5135565;27;20080;-79
2023/09/07 04:05:05;;;;;;;5.43;2.80;;;;;;;;;;5136074;27;20094;-79
2023/09/07 04:07:31;;;;;;;3.25;2.25;;;;;;;;;;5142141;27;20045;-79
2023/09/07 04:09:57;;;;;;;5.07;2.40;;;;;;;;;;5139731;27;20102;-77
2023/09/07 04:12:22;;;;;;;5.43;2.50;;;;;;;;;;5115082;27;20023;-78
2023/09/07 04:14:47;;;;;;;3.45;2.83;;;;;;;;;;5125886;27;20059;-78
2023/09/07 04:17:13;;;;;;;5.32;1.92;;;;;;;;;;5124824;27;20015;-78
2023/09/07 04:19:38;;;;;;;5.10;2.53;;;;;;;;;;5144458;27;20496;-78
2023/09/07 04:22:03;;;;;;;3.38;2.40;;;;;;;;;;5134797;27;20778;-78
2023/09/07 04:24:29;;;;;;;4.25;2.83;;;;;;;;;;5140812;27;20034;-79
2023/09/07 04:27:01;;;;;;;4.40;2.95;;;;;;;;;;5134210;27;20034;-79
2023/09/07 04:29:27;;;;;;;3.40;2.63;;;;;;;;;;5128045;27;20109;-78
2023/09/07 04:31:52;;;;;;;4.53;2.28;;;;;;;;;;5145587;27;20163;-78
2023/09/07 04:34:18;;;;;;;3.10;2.38;;;;;;;;;;5136879;27;20172;-78
2023/09/07 04:36:43;;;;;;;4.70;2.85;;;;;;;;;;5127319;27;20404;-78
2023/09/07 04:39:08;;;;;;;3.15;2.30;;;;;;;;;;5125969;27;20024;-80
2023/09/07 04:41:33;;;;;;;2.78;2.25;;;;;;;;;;5133696;27;20050;-79
2023/09/07 04:43:59;;;;;;;4.60;2.78;;;;;;;;;;5130344;27;20024;-79
2023/09/07 04:46:24;;;;;;;7.18;2.80;;;;;;;;;;5144528;27;20549;-78
2023/09/07 04:48:49;;;;;;;4.10;2.78;;;;;;;;;;5142571;27;20156;-80
2023/09/07 04:51:15;;;;;;;4.35;2.78;;;;;;;;;;5142847;27;20042;-79
2023/09/07 04:53:40;;;;;;;5.97;2.88;;;;;;;;;;5126742;28;20038;-78
2023/09/07 04:56:08;;;;;;;2.97;2.35;;;;;;;;;;5124146;27;20031;-79
2023/09/07 04:58:33;;;;;;;4.65;2.90;;;;;;;;;;5145429;27;20027;-78
2023/09/07 05:01:08;;;;;;;3.28;2.50;;;;;;;;;;5145502;27;20114;-78
2023/09/07 05:03:34;;;;;;;3.42;2.60;;;;;;;;;;5128584;27;20020;-78
2023/09/07 05:06:02;;;;;;;4.97;2.80;;;;;;;;;;5138361;27;20022;-82
2023/09/07 05:08:28;;;;;;;4.88;2.60;;;;;;;;;;5148781;27;20027;-79
2023/09/07 05:11:02;;;;;;;5.38;3.05;;;;;;;;;;5137754;28;20019;-79
2023/09/07 05:13:27;;;;;;;2.92;2.30;;;;;;;;;;5110588;27;20090;-78
2023/09/07 05:15:54;;;;;;;5.85;3.13;;;;;;;;;;5126169;27;20377;-78
2023/09/07 05:18:20;;;;;;;5.82;3.03;;;;;;;;;;5132603;27;20020;-78
2023/09/07 05:20:48;;;;;;;3.90;2.80;;;;;;;;;;5148302;27;20037;-78
2023/09/07 05:23:15;;;;;;;3.50;2.60;;;;;;;;;;5121367;27;20027;-78
2023/09/07 05:25:48;;;;;;;4.63;2.78;;;;;;;;;;5126320;27;20019;-78
2023/09/07 05:28:14;;;;;;;6.32;2.80;;;;;;;;;;5137023;27;20027;-78
2023/09/07 05:30:41;;;;;;;4.43;2.92;;;;;;;;;;5138490;27;20484;-78
2023/09/07 05:33:06;;;;;;;3.85;2.70;;;;;;;;;;5148902;27;20023;-78
2023/09/07 05:35:32;;;;;;;3.45;2.40;;;;;;;;;;5127167;27;20019;-78
2023/09/07 05:37:58;;;;;;;7.68;3.20;;;;;;;;;;5127645;27;20541;-78
2023/09/07 05:40:23;;;;;;;5.20;3.13;;;;;;;;;;5107720;27;20027;-78
2023/09/07 05:42:49;;;;;;;4.25;3.22;;;;;;;;;;5143275;27;20086;-78
2023/09/07 05:45:14;;;;;;;5.13;3.05;;;;;;;;;;5134536;27;20016;-79
2023/09/07 05:47:39;;;;;;;11.43;3.15;;;;;;;;;;5143322;27;20025;-78
2023/09/07 05:50:05;;;;;;;6.03;3.45;;;;;;;;;;5136688;27;20034;-79
2023/09/07 05:52:31;;;;;;;9.30;3.30;;;;;;;;;;5142567;27;20011;-79
2023/09/07 05:54:56;;;;;;;7.15;3.70;;;;;;;;;;5147210;27;20053;-78
2023/09/07 05:57:21;;;;;;;7.97;3.63;;;;;;;;;;5123169;27;20020;-78
2023/09/07 05:59:47;;;;;;;9.55;4.07;;;;;;;;;;5127632;27;20019;-78
2023/09/07 06:02:12;;;;;;;7.03;3.92;;;;;;;;;;5127214;27;20068;-77
2023/09/07 06:04:37;;;;;;;10.45;4.72;;;;;;;;;;5118898;28;20024;-78
2023/09/07 06:07:03;;;;;;;6.57;3.65;;;;;;;;;;5131972;27;20022;-77
2023/09/07 06:09:29;;;;;;;12.20;4.07;;;;;;;;;;5127784;27;20366;-77
2023/09/07 06:11:54;;;;;;;8.38;4.25;;;;;;;;;;5129107;27;20046;-77
2023/09/07 06:14:19;;;;;;;6.50;4.22;;;;;;;;;;5134255;27;20019;-77
2023/09/07 06:16:45;;;;;;;8.68;4.43;;;;;;;;;;5122600;27;20031;-77
2023/09/07 06:19:10;;;;;;;5.50;3.92;;;;;;;;;;5136643;27;20030;-78
2023/09/07 06:21:35;;;;;;;7.70;3.88;;;;;;;;;;5134768;27;20049;-77
2023/09/07 06:24:01;;;;;;;9.18;3.92;;;;;;;;;;5123427;27;20012;-79
2023/09/07 06:26:26;;;;;;;8.13;3.72;;;;;;;;;;5130610;27;20031;-79
2023/09/07 06:28:51;;;;;;;7.40;4.05;;;;;;;;;;5107858;27;20071;-77
2023/09/07 06:31:17;;;;;;;5.25;3.60;;;;;;;;;;5159772;27;20011;-79
2023/09/07 06:33:42;;;;;;;6.28;4.00;;;;;;;;;;5122843;27;20015;-78
2023/09/07 06:36:07;;;;;;;6.40;3.97;;;;;;;;;;5131905;27;20026;-78
2023/09/07 06:38:33;;;;;;;5.32;3.45;;;;;;;;;;5141831;27;20027;-78
2023/09/07 06:40:58;;;;;;;5.57;3.83;;;;;;;;;;5134118;27;20060;-77
2023/09/07 06:43:23;;;;;;;4.07;3.22;;;;;;;;;;5133859;27;20085;-78
2023/09/07 06:45:49;;;;;;;5.90;3.30;;;;;;;;;;5140824;27;20439;-78
2023/09/07 06:48:14;;;;;;;6.15;3.15;;;;;;;;;;5140044;27;20142;-80
2023/09/07 06:50:39;;;;;;;6.05;3.05;;;;;;;;;;5140880;27;20019;-78
2023/09/07 06:53:05;;;;;;;7.20;3.22;;;;;;;;;;5132325;27;20031;-79
2023/09/07 06:55:30;;;;;;;4.63;2.97;;;;;;;;;;5139982;27;20061;-79
2023/09/07 06:57:55;;;;;;;6.35;3.60;;;;;;;;;;5141689;27;20026;-80
2023/09/07 07:00:21;;;;;;;5.47;3.15;;;;;;;;;;5161150;27;20026;-78
2023/09/07 07:02:47;;;;;;;3.38;2.58;;;;;;;;;;5150358;27;20076;-77
2023/09/07 07:05:12;;;;;;;5.32;2.70;;;;;;;;;;5146004;27;20053;-78
2023/09/07 07:07:38;;;;;;;4.38;3.00;;;;;;;;;;5132052;27;20079;-78
2023/09/07 07:10:04;;;;;;;5.18;2.80;;;;;;;;;;5134311;27;20019;-77
2023/09/07 07:12:34;;;;;;;6.05;3.10;;;;;;;;;;5131008;27;20041;-78
2023/09/07 07:14:59;;;;;;;4.18;3.00;;;;;;;;;;5127681;27;20048;-79
2023/09/07 07:17:25;;;;;;;3.40;2.72;;;;;;;;;;5131865;27;20027;-80
2023/09/07 07:19:50;;;;;;;4.38;2.65;;;;;;;;;;5135769;27;20030;-79
2023/09/07 07:22:15;;;;;;;3.65;2.80;;;;;;;;;;5128086;27;20108;-79
2023/09/07 07:24:40;;;;;;;3.50;2.47;;;;;;;;;;5136013;27;20025;-77
2023/09/07 07:27:06;;;;;;;5.05;3.08;;;;;;;;;;5150305;27;20476;-77
2023/09/07 07:29:31;;;;;;;4.35;2.92;;;;;;;;;;5131167;27;20026;-78
2023/09/07 07:31:56;;;;;;;4.22;2.63;;;;;;;;;;5148102;27;20019;-78
2023/09/07 07:34:22;;;;;;;3.35;2.63;;;;;;;;;;5123294;27;20088;-77
2023/09/07 07:36:47;;;;;;;5.10;2.72;;;;;;;;;;5150084;27;20122;-77
2023/09/07 07:39:12;;;;;;;4.10;2.45;;;;;;;;;;5119866;27;20035;-80
2023/09/07 07:41:38;;;;;;;3.28;2.60;;;;;;;;;;5134588;27;20487;-79
2023/09/07 07:44:03;;;;;;;2.83;2.50;;;;;;;;;;5142536;27;20025;-80
2023/09/07 07:46:29;;;;;;;4.13;2.85;;;;;;;;;;5141802;27;20512;-79
2023/09/07 07:48:54;;;;;;;3.67;2.90;;;;;;;;;;5128426;27;20018;-78
2023/09/07 07:51:19;;;;;;;3.92;2.53;;;;;;;;;;5138549;27;20042;-78
2023/09/07 07:53:44;;;;;;;4.20;2.63;;;;;;;;;;5134362;27;20260;-79
2023/09/07 07:56:17;;;;;;;5.00;2.58;;;;;;;;;;5138155;27;20036;-78
2023/09/07 07:58:44;;;;;;;3.20;2.72;;;;;;;;;;5125453;27;20022;-77
2023/09/07 08:01:17;;;;;;;3.45;2.47;;;;;;;;;;5152715;27;20018;-79
2023/09/07 08:03:43;;;;;;;3.10;2.40;;;;;;;;;;5141415;27;20023;-78
2023/09/07 08:06:08;;;;;;;3.83;2.70;;;;;;;;;;5132125;27;20026;-79
2023/09/07 08:08:34;;;;;;;3.58;2.60;;;;;;;;;;5140732;27;20023;-78
2023/09/07 08:11:04;;;;;;;3.63;2.67;;;;;;;;;;5158186;27;20026;-79
2023/09/07 08:13:30;;;;;;;6.78;2.70;;;;;;;;;;5134927;27;20122;-78
2023/09/07 08:15:55;;;;;;;4.68;2.45;;;;;;;;;;5146309;27;20061;-78
2023/09/07 08:18:20;;;;;;;3.10;2.60;;;;;;;;;;5142810;27;20031;-78
2023/09/07 08:20:45;;;;;;;4.18;2.63;;;;;;;;;;5153910;27;20506;-78
2023/09/07 08:23:11;;;;;;;4.72;2.65;;;;;;;;;;5136310;27;20023;-79
2023/09/07 08:25:38;;;;;;;2.85;2.55;;;;;;;;;;5134170;27;20019;-78
2023/09/07 08:28:05;;;;;;;2.55;2.28;;;;;;;;;;5134912;27;20027;-78
2023/09/07 08:30:31;;;;;;;3.30;2.55;;;;;;;;;;5137794;27;20023;-78
2023/09/07 08:32:57;;;;;;;2.67;2.40;;;;;;;;;;5145211;27;20087;-79
2023/09/07 08:35:26;;;;;;;3.75;2.50;;;;;;;;;;5136932;27;20087;-78
2023/09/07 08:37:53;;;;;;;3.05;2.42;;;;;;;;;;5125356;27;20019;-79
2023/09/07 08:40:19;;;;;;;5.30;2.75;;;;;;;;;;5130638;27;20381;-78
2023/09/07 08:42:44;;;;;;;2.78;2.40;;;;;;;;;;5145567;27;20469;-77
2023/09/07 08:45:15;;;;;;;5.65;2.38;;;;;;;;;;5126512;27;20007;-78
2023/09/07 08:47:42;;;;;;;5.22;2.90;;;;;;;;;;5130650;27;20019;-79
2023/09/07 08:50:10;;;;;;;4.00;2.60;;;;;;;;;;5133786;27;20110;-78
2023/09/07 08:52:35;;;;;;;4.68;2.60;;;;;;;;;;5134677;27;20496;-78
2023/09/07 08:55:05;;;;;;;3.30;2.60;;;;;;;;;;5133704;28;20050;-78
2023/09/07 08:57:31;;;;;;;4.10;2.60;;;;;;;;;;5148830;27;20023;-77
2023/09/07 08:59:57;;;;;;;3.90;2.60;;;;;;;;;;5120794;28;20102;-77
2023/09/07 09:02:22;;;;;;;3.88;2.95;;;;;;;;;;5137199;27;20095;-79
2023/09/07 09:04:48;;;;;;;4.65;2.90;;;;;;;;;;5130795;27;20019;-77
2023/09/07 09:07:14;;;;;;;4.75;2.75;;;;;;;;;;5136619;27;20019;-78
2023/09/07 09:09:39;;;;;;;4.45;2.75;;;;;;;;;;5116850;28;20042;-78
2023/09/07 09:12:09;;;;;;;6.65;3.00;;;;;;;;;;5136544;27;20026;-78
2023/09/07 09:14:35;;;;;;;2.83;2.28;;;;;;;;;;5132866;27;20030;-79
2023/09/07 09:17:00;;;;;;;6.32;2.78;;;;;;;;;;5138080;27;20023;-79
2023/09/07 09:19:35;;;;;;;5.07;2.95;;;;;;;;;;5129665;27;20038;-78
2023/09/07 09:22:01;;;;;;;3.90;3.00;;;;;;;;;;5139097;27;20027;-79
2023/09/07 09:24:26;;;;;;;3.70;2.67;;;;;;;;;;5121317;27;20031;-79
2023/09/07 09:26:52;;;;;;;3.10;2.30;;;;;;;;;;5124462;27;20127;-79
2023/09/07 09:29:22;;;;;;;4.10;2.45;;;;;;;;;;5129078;27;20596;-78
2023/09/07 09:31:48;;;;;;;2.97;2.53;;;;;;;;;;5155744;27;20023;-79
2023/09/07 09:34:13;;;;;;;3.15;2.50;;;;;;;;;;5130183;27;20278;-79
2023/09/07 09:36:42;;;;;;;3.15;2.47;;;;;;;;;;5151659;27;20064;-79
2023/09/07 09:39:07;;;;;;;2.47;2.22;;;;;;;;;;5130841;27;20028;-79
2023/09/07 09:41:35;;;;;;;3.55;2.50;;;;;;;;;;5136032;27;20122;-79
2023/09/07 09:44:03;;;;;;;3.53;2.60;;;;;;;;;;5132748;27;20035;-81
2023/09/07 09:46:31;;;;;;;2.88;2.45;;;;;;;;;;5120154;27;20096;-79
2023/09/07 09:48:57;;;;;;;2.97;2.70;;;;;;;;;;5129663;27;20126;-78
2023/09/07 09:51:24;;;;;;;4.32;3.08;;;;;;;;;;5132663;27;20076;-78
2023/09/07 09:53:51;;;;;;;4.32;2.70;;;;;;;;;;5130824;28;20040;-79
2023/09/07 09:56:17;;;;;;;2.50;2.30;;;;;;;;;;5140854;27;20779;-79
2023/09/07 09:58:42;;;;;;;3.55;3.00;;;;;;;;;;5131289;27;20042;-79
2023/09/07 10:01:09;;;;;;;3.72;2.80;;;;;;;;;;5143555;27;20027;-79
2023/09/07 10:03:45;;;;;;;3.20;2.55;;;;;;;;;;5147080;27;20030;-78
2023/09/07 10:06:17;;;;;;;5.85;3.00;;;;;;;;;;5124622;27;20022;-79
2023/09/07 10:08:53;;;;;;;3.55;2.60;;;;;;;;;;5161246;27;20023;-78
2023/09/07 10:11:27;;;;;;;3.65;2.70;;;;;;;;;;5160755;27;20022;-79
2023/09/07 10:13:57;;;;;;;4.93;2.97;;;;;;;;;;5135533;27;20023;-79
2023/09/07 10:16:22;;;;;;;2.72;2.47;;;;;;;;;;5159325;27;20099;-79
2023/09/07 10:18:47;;;;;;;3.88;2.60;;;;;;;;;;5133120;27;20051;-79
2023/09/07 10:21:13;;;;;;;4.18;2.70;;;;;;;;;;5130463;27;20065;-79
2023/09/07 10:23:43;;;;;;;3.55;2.80;;;;;;;;;;5139189;27;20046;-79
2023/09/07 10:26:17;;;;;;;5.50;3.58;;;;;;;;;;5142697;27;20380;-79
2023/09/07 10:28:45;;;;;;;7.30;3.00;;;;;;;;;;5133564;27;20027;-80
2023/09/07 10:31:18;;;;;;;5.20;2.72;;;;;;;;;;5125081;27;20027;-80
2023/09/07 10:33:45;;;;;;;5.47;3.33;;;;;;;;;;5134254;27;20022;-79
2023/09/07 10:36:22;;;;;;;4.43;2.42;;;;;;;;;;5155234;27;20435;-80
2023/09/07 10:38:47;;;;;;;4.55;3.25;;;;;;;;;;5143368;27;20068;-79
2023/09/07 10:41:13;;;;;;;2.78;2.55;;;;;;;;;;5160580;27;20026;-79
2023/09/07 10:43:50;;;;;;;2.50;2.30;;;;;;;;;;5161862;27;20062;-79
2023/09/07 10:46:19;;;;;;;2.50;2.30;;;;;;;;;;5158218;27;20034;-79
2023/09/07 10:48:45;;;;;;;3.58;2.75;;;;;;;;;;5141996;27;20155;-78
2023/09/07 10:51:10;;;;;;;3.72;2.97;;;;;;;;;;5135462;27;20068;-79
2023/09/07 10:53:36;;;;;;;3.47;2.72;;;;;;;;;;5140976;27;20116;-79
2023/09/07 10:56:05;;;;;;;3.42;2.47;;;;;;;;;;5136160;27;20019;-78
2023/09/07 10:58:35;;;;;;;2.85;2.55;;;;;;;;;;5132890;27;20035;-83
2023/09/07 11:01:03;;;;;;;5.25;2.90;;;;;;;;;;5127968;27;20023;-79
2023/09/07 11:03:28;;;;;;;3.53;2.72;;;;;;;;;;5138243;27;20019;-80
2023/09/07 11:05:58;;;;;;;4.35;2.40;;;;;;;;;;5130773;28;20026;-79
2023/09/07 11:08:23;;;;;;;2.40;2.20;;;;;;;;;;5138998;27;20026;-78
2023/09/07 11:10:51;;;;;;;2.85;2.55;;;;;;;;;;5125492;27;20033;-80
2023/09/07 11:13:16;;;;;;;2.78;2.20;;;;;;;;;;5126669;27;20035;-79
2023/09/07 11:15:42;;;;;;;2.80;2.60;;;;;;;;;;5135916;27;20487;-78
2023/09/07 11:18:08;;;;;;;2.90;2.60;;;;;;;;;;5112350;27;20020;-78
2023/09/07 11:20:39;;;;;;;2.80;2.33;;;;;;;;;;5132282;27;20026;-78
2023/09/07 11:23:05;;;;;;;3.33;2.50;;;;;;;;;;5127824;27;20019;-78
2023/09/07 11:25:37;;;;;;;3.47;2.58;;;;;;;;;;5106684;27;20590;-78
2023/09/07 11:28:06;;;;;;;3.95;2.67;;;;;;;;;;5131301;27;20087;-77
2023/09/07 11:30:32;;;;;;;4.75;2.75;;;;;;;;;;5133483;27;20027;-78
2023/09/07 11:33:06;;;;;;;2.83;2.35;;;;;;;;;;5134136;27;20027;-79
2023/09/07 11:35:32;;;;;;;6.55;2.72;;;;;;;;;;5141403;27;20034;-79
2023/09/07 11:38:04;;;;;;;3.40;2.33;;;;;;;;;;5143511;27;20011;-79
2023/09/07 11:40:30;;;;;;;2.45;2.25;;;;;;;;;;5120579;27;20046;-78
2023/09/07 11:42:55;;;;;;;4.20;2.60;;;;;;;;;;5143555;27;20026;-78
2023/09/07 11:45:21;;;;;;;4.85;2.72;;;;;;;;;;5137875;27;20068;-79
2023/09/07 11:47:47;;;;;;;2.45;2.25;;;;;;;;;;5149425;27;20022;-78
2023/09/07 11:50:12;;;;;;;2.90;2.47;;;;;;;;;;5113021;28;20023;-79
2023/09/07 11:52:37;;;;;;;2.67;2.38;;;;;;;;;;5135389;27;20408;-78
2023/09/07 11:55:03;;;;;;;3.58;2.63;;;;;;;;;;5140669;27;20015;-79
2023/09/07 11:57:29;;;;;;;4.65;2.53;;;;;;;;;;5137099;27;20019;-78
2023/09/07 11:59:55;;;;;;;4.22;2.38;;;;;;;;;;5132631;27;20095;-79
2023/09/07 12:02:21;;;;;;;3.88;3.17;;;;;;;;;;5139587;27;20051;-79
2023/09/07 12:04:47;;;;;;;3.20;2.40;;;;;;;;;;5170200;27;20003;-79
2023/09/07 12:07:12;;;;;;;3.47;2.50;;;;;;;;;;5160889;27;20042;-78
2023/09/07 12:09:38;;;;;;;2.42;2.22;;;;;;;;;;5135574;27;20019;-79
2023/09/07 12:12:04;;;;;;;2.17;1.98;;;;;;;;;;5135628;27;20075;-79
2023/09/07 12:14:29;;;;;;;4.60;2.35;;;;;;;;;;5113576;27;20035;-78
2023/09/07 12:16:55;;;;;;;2.25;2.05;;;;;;;;;;5134548;27;20042;-80
2023/09/07 12:19:20;;;;;;;2.63;2.22;;;;;;;;;;5117272;27;20022;-80
2023/09/07 12:21:45;;;;;;;3.47;2.65;;;;;;;;;;5139034;27;20037;-79
2023/09/07 12:24:12;;;;;;;2.60;2.40;;;;;;;;;;5116067;27;20055;-80
2023/09/07 12:26:37;;;;;;;3.42;2.65;;;;;;;;;;5113977;28;20049;-78
2023/09/07 12:29:02;;;;;;;3.17;2.47;;;;;;;;;;5114836;27;20069;-78
2023/09/07 12:31:28;;;;;;;5.05;2.47;;;;;;;;;;5131023;27;20041;-80
2023/09/07 12:33:53;;;;;;;3.75;2.65;;;;;;;;;;5136783;27;20031;-80
2023/09/07 12:36:21;;;;;;;3.63;2.53;;;;;;;;;;5135531;27;20034;-80
2023/09/07 12:38:46;;;;;;;3.15;2.35;;;;;;;;;;5123491;27;20049;-79
2023/09/07 12:41:12;;;;;;;4.20;2.42;;;;;;;;;;5132639;27;20031;-79
2023/09/07 12:43:37;;;;;;;2.55;2.20;;;;;;;;;;5135288;27;20028;-76
2023/09/07 12:46:03;;;;;;;5.43;3.00;;;;;;;;;;5144198;27;20026;-80
2023/09/07 12:48:29;;;;;;;2.90;2.55;;;;;;;;;;5125825;27;20057;-80
2023/09/07 12:50:55;;;;;;;2.75;2.33;;;;;;;;;;5131817;27;20027;-77
2023/09/07 12:53:24;;;;;;;3.97;2.40;;;;;;;;;;5129992;27;20024;-78
2023/09/07 12:55:50;;;;;;;3.90;2.45;;;;;;;;;;5115895;28;20027;-78
2023/09/07 12:58:15;;;;;;;3.00;2.20;;;;;;;;;;5129217;28;20079;-78
2023/09/07 13:00:41;;;;;;;5.70;2.53;;;;;;;;;;5129636;27;20046;-78
2023/09/07 13:03:06;;;;;;;4.45;2.70;;;;;;;;;;5146347;27;20058;-80
2023/09/07 13:05:33;;;;;;;2.22;2.03;;;;;;;;;;5137716;27;20039;-80
2023/09/07 13:07:59;;;;;;;3.50;2.15;;;;;;;;;;5138895;28;20091;-80
2023/09/07 13:10:25;;;;;;;3.10;2.53;;;;;;;;;;5149836;27;20018;-80
2023/09/07 13:12:50;;;;;;;3.10;2.40;;;;;;;;;;5133385;27;20055;-79
2023/09/07 13:15:15;;;;;;;4.13;2.70;;;;;;;;;;5131491;27;20469;-78
2023/09/07 13:17:41;;;;;;;2.60;2.30;;;;;;;;;;5134422;27;20027;-79
2023/09/07 13:20:07;;;;;;;3.42;2.38;;;;;;;;;;5137780;27;20216;-78
2023/09/07 13:22:32;;;;;;;4.80;2.38;;;;;;;;;;5137350;27;20092;-78
2023/09/07 13:24:57;;;;;;;3.97;2.35;;;;;;;;;;5135197;27;20046;-78
2023/09/07 13:27:25;;;;;;;2.75;2.30;;;;;;;;;;5140669;27;20497;-79
2023/09/07 13:29:50;;;;;;;2.78;2.42;;;;;;;;;;5138650;28;20043;-79
2023/09/07 13:32:16;;;;;;;2.60;2.15;;;;;;;;;;5133632;27;20512;-79
2023/09/07 13:34:42;;;;;;;2.80;2.42;;;;;;;;;;5152233;27;20469;-79
2023/09/07 13:37:07;;;;;;;3.97;2.88;;;;;;;;;;5134282;27;20029;-79
2023/09/07 13:39:32;;;;;;;3.10;2.28;;;;;;;;;;5129659;27;20044;-79
2023/09/07 13:41:58;;;;;;;3.17;2.30;;;;;;;;;;5140791;27;20026;-79
2023/09/07 13:44:23;;;;;;;2.95;2.40;;;;;;;;;;5144306;27;20385;-78
2023/09/07 13:46:48;;;;;;;3.25;2.30;;;;;;;;;;5134931;27;20209;-79
2023/09/07 13:49:14;;;;;;;3.13;2.20;;;;;;;;;;5147685;27;20038;-79
2023/09/07 13:51:43;;;;;;;3.28;2.40;;;;;;;;;;5149037;27;20029;-79
2023/09/07 13:54:08;;;;;;;3.95;2.30;;;;;;;;;;5151174;27;20046;-78
2023/09/07 13:56:34;;;;;;;2.00;1.75;;;;;;;;;;5147185;27;20027;-79
2023/09/07 13:59:00;;;;;;;3.05;2.55;;;;;;;;;;5147209;27;20261;-78
2023/09/07 14:01:25;;;;;;;3.42;2.17;;;;;;;;;;5145506;27;20027;-79
2023/09/07 14:03:51;;;;;;;3.15;2.40;;;;;;;;;;5147032;27;20087;-79
2023/09/07 14:06:18;;;;;;;2.38;2.10;;;;;;;;;;5138309;27;20157;-79
2023/09/07 14:08:43;;;;;;;3.78;2.90;;;;;;;;;;5153190;27;20026;-78
2023/09/07 14:11:09;;;;;;;3.75;2.05;;;;;;;;;;5137666;27;20023;-78
2023/09/07 14:13:35;;;;;;;3.63;2.30;;;;;;;;;;5135213;27;20023;-78
2023/09/07 14:16:00;;;;;;;2.53;2.03;;;;;;;;;;5118092;27;20041;-78
2023/09/07 14:18:25;;;;;;;2.20;2.00;;;;;;;;;;5145772;27;20047;-79
2023/09/07 14:20:52;;;;;;;4.07;1.90;;;;;;;;;;5154416;27;20042;-80
2023/09/07 14:23:17;;;;;;;2.03;1.92;;;;;;;;;;5151407;27;20027;-80
2023/09/07 14:25:44;;;;;;;2.50;2.10;;;;;;;;;;5124940;27;20016;-79
2023/09/07 14:28:10;;;;;;;2.47;2.28;;;;;;;;;;5143290;27;20031;-79
2023/09/07 14:30:35;;;;;;;3.33;2.63;;;;;;;;;;5147936;27;20699;-80
2023/09/07 14:33:01;;;;;;;3.28;2.53;;;;;;;;;;5143227;27;20019;-79
2023/09/07 14:35:26;;;;;;;2.40;2.13;;;;;;;;;;5144807;27;20058;-80
2023/09/07 14:37:52;;;;;;;2.30;2.10;;;;;;;;;;5139071;27;20022;-79